createdAt,value
2022-12-18T00:02:23.007Z,8.60
2022-12-18T00:04:49.614Z,8.62
2022-12-18T00:07:16.308Z,8.54
2022-12-18T00:09:42.959Z,8.56
2022-12-18T00:14:45.619Z,8.50
2022-12-18T00:17:12.318Z,8.37
2022-12-18T00:19:38.986Z,8.40
2022-12-18T00:22:07.328Z,8.40
2022-12-18T00:24:34.036Z,8.46
2022-12-18T00:27:00.695Z,8.48
2022-12-18T00:29:27.409Z,8.58
2022-12-18T00:32:01.162Z,8.58
2022-12-18T00:34:27.907Z,8.59
2022-12-18T00:36:54.561Z,8.58
2022-12-18T00:39:22.007Z,8.56
2022-12-18T00:42:07.632Z,8.39
2022-12-18T00:44:34.740Z,8.45
2022-12-18T00:47:01.790Z,8.41
2022-12-18T00:49:28.495Z,8.33
2022-12-18T00:51:56.212Z,8.28
2022-12-18T00:54:22.969Z,8.22
2022-12-18T00:56:50.077Z,8.32
2022-12-18T00:59:20.083Z,8.26
2022-12-18T01:01:47.917Z,8.36
2022-12-18T01:04:15.260Z,8.31
2022-12-18T01:06:41.966Z,8.36
2022-12-18T01:09:08.634Z,8.34
2022-12-18T01:11:35.569Z,8.35
2022-12-18T01:14:02.240Z,8.39
2022-12-18T01:16:29.085Z,8.40
2022-12-18T01:18:56.364Z,8.34
2022-12-18T01:21:23.885Z,8.37
2022-12-18T01:23:55.619Z,8.21
2022-12-18T01:26:23.323Z,8.29
2022-12-18T01:28:50.020Z,8.34
2022-12-18T01:31:25.725Z,8.17
2022-12-18T01:33:53.761Z,8.02
2022-12-18T01:36:21.684Z,8.03
2022-12-18T01:38:50.375Z,8.00
2022-12-18T01:41:20.487Z,7.97
2022-12-18T01:43:55.235Z,7.99
2022-12-18T01:46:24.205Z,7.87
2022-12-18T01:48:54.763Z,7.87
2022-12-18T01:51:22.537Z,7.87
2022-12-18T01:53:49.577Z,7.86
2022-12-18T01:56:19.794Z,7.80
2022-12-18T01:59:11.242Z,7.71
2022-12-18T02:01:39.066Z,7.73
2022-12-18T02:04:32.316Z,7.44
2022-12-18T02:06:58.931Z,7.29
2022-12-18T02:09:33.930Z,7.40
2022-12-18T02:12:06.378Z,7.22
2022-12-18T02:14:49.332Z,7.33
2022-12-18T02:17:16.165Z,7.39
2022-12-18T02:19:56.966Z,7.40
2022-12-18T02:22:41.597Z,7.36
2022-12-18T02:25:25.367Z,7.30
2022-12-18T02:27:53.338Z,7.38
2022-12-18T02:30:20.569Z,7.25
2022-12-18T02:32:52.074Z,7.21
2022-12-18T02:35:28.039Z,7.22
2022-12-18T02:37:55.580Z,7.15
2022-12-18T02:40:25.669Z,7.25
2022-12-18T02:42:52.360Z,7.07
2022-12-18T02:45:19.179Z,7.12
2022-12-18T02:47:49.463Z,7.03
2022-12-18T02:50:19.583Z,7.05
2022-12-18T02:52:55.044Z,7.04
2022-12-18T02:55:33.935Z,7.07
2022-12-18T02:58:19.812Z,7.13
2022-12-18T03:00:55.766Z,7.11
2022-12-18T03:03:47.139Z,7.07
2022-12-18T03:06:16.466Z,7.14
2022-12-18T03:08:47.760Z,7.15
2022-12-18T03:11:15.253Z,7.15
2022-12-18T03:13:46.460Z,7.21
2022-12-18T03:16:18.142Z,7.24
2022-12-18T03:18:50.534Z,7.23
2022-12-18T03:21:22.505Z,7.24
2022-12-18T03:23:52.487Z,7.22
2022-12-18T03:26:23.294Z,7.22
2022-12-18T03:28:59.856Z,7.18
2022-12-18T03:31:30.254Z,7.24
2022-12-18T03:34:00.869Z,7.33
2022-12-18T03:36:27.888Z,7.39
2022-12-18T03:38:54.819Z,7.42
2022-12-18T03:41:41.804Z,7.48
2022-12-18T03:44:37.910Z,7.42
2022-12-18T03:47:19.836Z,7.25
2022-12-18T03:50:18.889Z,7.41
2022-12-18T03:53:06.834Z,7.38
2022-12-18T03:55:36.248Z,7.37
2022-12-18T03:58:06.324Z,7.40
2022-12-18T04:00:34.463Z,7.34
2022-12-18T04:03:02.740Z,7.37
2022-12-18T04:05:31.350Z,7.03
2022-12-18T04:07:58.890Z,6.81
2022-12-18T04:10:25.514Z,7.07
2022-12-18T04:12:56.461Z,7.09
2022-12-18T04:15:23.307Z,7.17
2022-12-18T04:17:50.844Z,7.13
2022-12-18T04:20:17.827Z,7.12
2022-12-18T04:22:44.829Z,7.02
2022-12-18T04:25:11.468Z,6.94
2022-12-18T04:27:38.105Z,6.53
2022-12-18T04:30:05.401Z,6.78
2022-12-18T04:32:32.046Z,6.79
2022-12-18T04:34:58.722Z,6.82
2022-12-18T04:37:25.818Z,6.81
2022-12-18T04:39:52.448Z,6.87
2022-12-18T04:42:19.095Z,6.86
2022-12-18T04:44:45.841Z,6.92
2022-12-18T04:47:12.554Z,6.94
2022-12-18T04:49:39.224Z,7.01
2022-12-18T04:52:06.163Z,7.03
2022-12-18T04:54:32.808Z,7.04
2022-12-18T04:56:59.457Z,6.98
2022-12-18T04:59:26.220Z,7.01
2022-12-18T05:01:52.986Z,7.02
2022-12-18T05:04:19.850Z,6.94
2022-12-18T05:06:46.691Z,6.81
2022-12-18T05:09:13.920Z,6.98
2022-12-18T05:11:40.617Z,7.01
2022-12-18T05:14:07.621Z,6.89
2022-12-18T05:16:34.927Z,6.92
2022-12-18T05:19:01.583Z,6.73
2022-12-18T05:21:28.384Z,6.64
2022-12-18T05:23:55.178Z,6.61
2022-12-18T05:26:21.934Z,6.59
2022-12-18T05:28:48.697Z,6.65
2022-12-18T05:31:15.673Z,6.65
2022-12-18T05:33:42.773Z,6.66
2022-12-18T05:36:11.078Z,6.58
2022-12-18T05:38:39.664Z,6.37
2022-12-18T05:41:07.178Z,6.53
2022-12-18T05:43:36.846Z,6.57
2022-12-18T05:46:15.180Z,6.48
2022-12-18T05:48:43.311Z,6.62
2022-12-18T05:51:16.229Z,6.30
2022-12-18T05:53:44.070Z,6.26
2022-12-18T05:56:16.801Z,6.18
2022-12-18T05:58:44.496Z,6.13
2022-12-18T06:01:17.924Z,6.13
2022-12-18T06:03:46.010Z,6.16
2022-12-18T06:06:22.045Z,5.93
2022-12-18T06:08:49.533Z,5.92
2022-12-18T06:11:20.102Z,5.93
2022-12-18T06:13:47.760Z,6.14
2022-12-18T06:16:14.656Z,6.20
2022-12-18T06:18:41.483Z,6.27
2022-12-18T06:21:08.488Z,6.31
2022-12-18T06:23:37.591Z,6.52
2022-12-18T06:26:10.115Z,6.67
2022-12-18T06:28:36.839Z,6.47
2022-12-18T06:31:05.301Z,6.30
2022-12-18T06:33:32.391Z,6.39
2022-12-18T06:36:13.234Z,6.23
2022-12-18T06:38:43.235Z,6.21
2022-12-18T06:41:12.715Z,6.51
2022-12-18T06:43:39.812Z,6.76
2022-12-18T06:46:07.313Z,7.04
2022-12-18T06:48:34.490Z,7.16
2022-12-18T06:51:01.262Z,7.41
2022-12-18T06:53:28.763Z,7.38
2022-12-18T06:56:10.254Z,7.38
2022-12-18T06:58:38.864Z,7.21
2022-12-18T07:01:07.773Z,7.12
2022-12-18T07:03:34.639Z,7.09
2022-12-18T07:06:01.680Z,7.33
2022-12-18T07:08:30.202Z,7.62
2022-12-18T07:10:56.825Z,7.79
2022-12-18T07:13:24.346Z,7.93
2022-12-18T07:15:51.038Z,7.91
2022-12-18T07:18:17.659Z,8.03
2022-12-18T07:20:45.285Z,7.88
2022-12-18T07:23:12.859Z,7.64
2022-12-18T07:25:40.513Z,7.63
2022-12-18T07:28:08.866Z,7.64
2022-12-18T07:30:39.538Z,7.92
2022-12-18T07:33:09.969Z,7.91
2022-12-18T07:35:36.812Z,7.98
2022-12-18T07:38:03.516Z,7.84
2022-12-18T07:40:30.488Z,7.68
2022-12-18T07:42:59.412Z,7.55
2022-12-18T07:45:26.272Z,7.65
2022-12-18T07:47:53.156Z,7.71
2022-12-18T07:50:20.084Z,7.82
2022-12-18T07:52:46.939Z,7.97
2022-12-18T07:55:14.615Z,7.99
2022-12-18T07:57:50.811Z,8.19
2022-12-18T08:00:19.499Z,8.30
2022-12-18T08:02:48.563Z,8.46
2022-12-18T08:05:15.460Z,8.52
2022-12-18T08:07:42.218Z,8.63
2022-12-18T08:10:09.372Z,8.51
2022-12-18T08:12:36.056Z,8.71
2022-12-18T08:15:02.787Z,8.72
2022-12-18T08:17:29.741Z,8.71
2022-12-18T08:19:56.437Z,8.69
2022-12-18T08:22:23.279Z,8.48
2022-12-18T08:24:49.920Z,8.39
2022-12-18T08:27:31.976Z,8.36
2022-12-18T08:29:59.328Z,8.42
2022-12-18T08:32:27.107Z,8.32
2022-12-18T08:34:53.839Z,8.39
2022-12-18T08:37:20.797Z,8.42
2022-12-18T08:39:47.510Z,8.55
2022-12-18T08:42:33.248Z,8.53
2022-12-18T08:45:00.147Z,8.46
2022-12-18T08:47:27.158Z,8.58
2022-12-18T08:49:53.986Z,8.77
2022-12-18T08:52:20.964Z,8.91
2022-12-18T08:54:47.754Z,9.03
2022-12-18T08:57:14.737Z,9.19
2022-12-18T08:59:41.421Z,9.25
2022-12-18T09:02:11.744Z,9.48
2022-12-18T09:04:38.762Z,9.33
2022-12-18T09:07:05.460Z,9.21
2022-12-18T09:09:32.123Z,9.23
2022-12-18T09:11:59.151Z,9.07
2022-12-18T09:14:25.786Z,9.21
2022-12-18T09:16:52.425Z,9.29
2022-12-18T09:19:19.152Z,9.13
2022-12-18T09:21:48.319Z,8.69
2022-12-18T09:24:16.355Z,8.73
2022-12-18T09:26:44.233Z,8.82
2022-12-18T09:29:15.582Z,8.82
2022-12-18T09:31:43.103Z,8.88
2022-12-18T09:34:09.948Z,8.94
2022-12-18T09:36:36.771Z,9.00
2022-12-18T09:39:08.053Z,9.19
2022-12-18T09:41:48.505Z,9.34
2022-12-18T09:44:23.989Z,9.42
2022-12-18T09:47:12.244Z,9.54
2022-12-18T09:49:44.119Z,9.63
2022-12-18T09:52:18.801Z,9.44
2022-12-18T09:54:53.023Z,9.54
2022-12-18T09:57:23.656Z,9.40
2022-12-18T09:59:55.374Z,9.36
2022-12-18T10:02:25.354Z,9.51
2022-12-18T10:05:06.509Z,9.65
2022-12-18T10:07:56.413Z,9.73
2022-12-18T10:10:35.094Z,9.64
2022-12-18T10:13:13.966Z,9.48
2022-12-18T10:15:55.926Z,9.40
2022-12-18T10:18:45.462Z,9.36
2022-12-18T10:21:19.504Z,9.64
2022-12-18T10:23:52.289Z,9.66
2022-12-18T10:26:19.272Z,9.79
2022-12-18T10:28:46.825Z,9.89
2022-12-18T10:31:18.546Z,9.89
2022-12-18T10:33:45.471Z,9.91
2022-12-18T10:36:12.300Z,9.69
2022-12-18T10:38:40.087Z,9.43
2022-12-18T10:41:27.805Z,9.81
2022-12-18T10:44:31.588Z,9.98
2022-12-18T10:47:11.487Z,9.89
2022-12-18T10:49:51.626Z,10.02
2022-12-18T10:52:27.115Z,10.15
2022-12-18T10:54:59.818Z,10.15
2022-12-18T10:57:41.589Z,10.19
2022-12-18T11:00:36.927Z,10.05
2022-12-18T11:03:03.937Z,9.75
2022-12-18T11:05:31.905Z,9.88
2022-12-18T11:08:00.375Z,9.96
2022-12-18T11:10:33.619Z,9.90
2022-12-18T11:13:25.507Z,10.10
2022-12-18T11:15:53.160Z,10.15
2022-12-18T11:18:30.946Z,9.97
2022-12-18T11:21:08.690Z,9.79
2022-12-18T11:23:37.283Z,9.73
2022-12-18T11:26:07.226Z,9.57
2022-12-18T11:28:42.291Z,9.50
2022-12-18T11:31:17.128Z,9.46
2022-12-18T11:34:12.252Z,9.50
2022-12-18T11:36:49.134Z,9.32
2022-12-18T11:39:30.774Z,9.44
2022-12-18T11:42:12.912Z,9.44
2022-12-18T11:44:43.709Z,9.76
2022-12-18T11:47:32.053Z,9.92
2022-12-18T11:50:02.315Z,9.85
2022-12-18T11:52:38.008Z,9.74
2022-12-18T11:55:38.184Z,9.81
2022-12-18T11:58:19.999Z,9.80
2022-12-18T12:01:28.904Z,9.74
2022-12-18T12:04:21.992Z,9.70
2022-12-18T12:07:01.485Z,9.76
2022-12-18T12:09:40.780Z,9.77
2022-12-18T12:12:29.735Z,9.79
2022-12-18T12:15:11.263Z,9.80
2022-12-18T12:17:52.349Z,9.69
2022-12-18T12:20:42.242Z,9.64
2022-12-18T12:23:31.343Z,9.52
2022-12-18T12:26:29.166Z,9.43
2022-12-18T12:29:26.755Z,9.32
2022-12-18T12:32:08.253Z,9.43
2022-12-18T12:34:37.925Z,9.49
2022-12-18T12:37:12.857Z,9.58
2022-12-18T12:39:44.249Z,9.64
2022-12-18T12:42:40.164Z,9.62
2022-12-18T12:45:08.227Z,9.61
2022-12-18T12:47:44.119Z,9.74
2022-12-18T12:50:21.230Z,9.65
2022-12-18T12:52:54.920Z,9.61
2022-12-18T12:55:25.396Z,9.74
2022-12-18T12:57:57.272Z,9.70
2022-12-18T13:00:25.439Z,9.74
2022-12-18T13:02:58.588Z,9.57
2022-12-18T13:05:32.540Z,9.53
2022-12-18T13:08:04.864Z,9.41
2022-12-18T13:10:38.068Z,9.30
2022-12-18T13:13:24.249Z,9.34
2022-12-18T13:16:07.692Z,9.29
2022-12-18T13:18:35.340Z,9.36
2022-12-18T13:21:03.657Z,9.34
2022-12-18T13:23:33.643Z,9.45
2022-12-18T13:26:09.334Z,9.38
2022-12-18T13:28:48.095Z,9.15
2022-12-18T13:31:16.383Z,9.19
2022-12-18T13:34:23.914Z,9.12
2022-12-18T13:36:36.148Z,9.17
2022-12-18T13:39:28.590Z,9.06
2022-12-18T13:42:05.671Z,8.88
2022-12-18T13:44:40.227Z,8.71
2022-12-18T13:47:37.453Z,8.79
2022-12-18T13:50:21.934Z,8.85
2022-12-18T13:52:49.653Z,8.81
2022-12-18T13:55:20.191Z,8.86
2022-12-18T13:57:47.657Z,8.76
2022-12-18T14:00:23.670Z,8.73
2022-12-18T14:02:51.455Z,8.61
2022-12-18T14:05:38.600Z,8.47
2022-12-18T14:08:12.604Z,8.53
2022-12-18T14:10:48.426Z,8.68
2022-12-18T14:13:35.164Z,8.55
2022-12-18T14:16:04.720Z,8.63
2022-12-18T14:19:15.853Z,8.53
2022-12-18T14:21:50.916Z,8.55
2022-12-18T14:24:21.747Z,8.48
2022-12-18T14:26:50.836Z,8.46
2022-12-18T14:29:30.072Z,8.32
2022-12-18T14:32:17.859Z,8.15
2022-12-18T14:34:46.939Z,8.26
2022-12-18T14:37:16.681Z,8.16
2022-12-18T14:39:55.289Z,8.08
2022-12-18T14:42:22.293Z,7.97
2022-12-18T14:47:35.741Z,8.02
2022-12-18T14:50:02.517Z,7.92
2022-12-18T14:52:32.443Z,7.94
2022-12-18T14:54:59.191Z,7.87
2022-12-18T14:57:33.472Z,7.76
2022-12-18T15:00:16.279Z,7.43
2022-12-18T15:02:44.372Z,7.43
2022-12-18T15:05:14.057Z,7.47
2022-12-18T15:07:46.287Z,7.38
2022-12-18T15:10:16.650Z,7.37
2022-12-18T15:12:48.552Z,7.34
2022-12-18T15:15:34.332Z,7.07
2022-12-18T15:18:13.061Z,6.83
2022-12-18T15:20:56.700Z,6.74
2022-12-18T15:23:29.668Z,6.94
2022-12-18T15:26:01.518Z,6.90
2022-12-18T15:28:54.124Z,6.79
2022-12-18T15:31:25.710Z,6.75
2022-12-18T15:33:53.451Z,6.62
2022-12-18T15:36:26.837Z,6.70
2022-12-18T15:38:57.890Z,6.50
2022-12-18T15:41:35.208Z,6.44
2022-12-18T15:44:04.480Z,6.45
2022-12-18T15:46:32.091Z,6.35
2022-12-18T15:49:02.561Z,6.16
2022-12-18T15:51:33.698Z,6.07
2022-12-18T15:54:04.750Z,5.91
2022-12-18T15:56:50.625Z,5.98
2022-12-18T15:59:19.910Z,6.09
2022-12-18T16:01:49.202Z,6.24
2022-12-18T16:04:18.494Z,6.09
2022-12-18T16:07:13.149Z,6.04
2022-12-18T16:09:32.033Z,5.81
2022-12-18T16:11:58.781Z,5.91
2022-12-18T16:14:28.400Z,5.80
2022-12-18T16:17:00.686Z,5.87
2022-12-18T16:19:28.353Z,5.90
2022-12-18T16:21:57.253Z,5.87
2022-12-18T16:24:34.698Z,5.78
2022-12-18T16:27:01.837Z,5.63
2022-12-18T16:29:29.535Z,5.63
2022-12-18T16:32:01.313Z,5.72
2022-12-18T16:34:32.127Z,5.67
2022-12-18T16:37:06.984Z,5.56
2022-12-18T16:39:35.448Z,5.51
2022-12-18T16:42:05.711Z,5.56
2022-12-18T16:44:34.271Z,5.46
2022-12-18T16:47:03.132Z,5.49
2022-12-18T16:49:30.828Z,5.47
2022-12-18T16:51:58.075Z,5.53
2022-12-18T16:54:25.173Z,5.42
2022-12-18T16:56:52.545Z,5.34
2022-12-18T16:59:20.051Z,5.39
2022-12-18T17:01:47.509Z,5.34
2022-12-18T17:04:15.266Z,5.27
2022-12-18T17:06:44.243Z,5.41
2022-12-18T17:09:16.183Z,5.42
2022-12-18T17:11:44.016Z,5.38
2022-12-18T17:14:15.332Z,5.42
2022-12-18T17:16:42.157Z,5.38
2022-12-18T17:19:12.273Z,5.23
2022-12-18T17:21:45.755Z,5.31
2022-12-18T17:24:12.506Z,5.32
2022-12-18T17:26:39.331Z,5.22
2022-12-18T17:29:06.519Z,5.32
2022-12-18T17:31:34.176Z,5.18
2022-12-18T17:34:04.492Z,5.22
2022-12-18T17:36:32.619Z,5.11
2022-12-18T17:39:03.044Z,5.26
2022-12-18T17:41:30.902Z,5.13
2022-12-18T17:44:03.986Z,5.11
2022-12-18T17:46:33.069Z,5.17
2022-12-18T17:49:02.613Z,5.04
2022-12-18T17:51:30.205Z,5.13
2022-12-18T17:53:57.035Z,5.09
2022-12-18T17:56:24.864Z,4.99
2022-12-18T17:58:52.463Z,4.96
2022-12-18T18:01:23.245Z,4.91
2022-12-18T18:03:53.491Z,4.85
2022-12-18T18:06:21.485Z,4.87
2022-12-18T18:08:48.366Z,4.68
2022-12-18T18:11:36.873Z,4.74
2022-12-18T18:14:06.993Z,4.77
2022-12-18T18:16:40.340Z,4.70
2022-12-18T18:19:10.388Z,4.71
2022-12-18T18:21:42.961Z,4.89
2022-12-18T18:24:11.517Z,5.00
2022-12-18T18:26:38.838Z,5.09
2022-12-18T18:29:07.679Z,5.07
2022-12-18T18:31:40.335Z,4.91
2022-12-18T18:34:11.034Z,4.92
2022-12-18T18:36:37.656Z,4.91
2022-12-18T18:39:04.419Z,5.18
2022-12-18T18:41:31.529Z,5.20
2022-12-18T18:43:58.830Z,4.99
2022-12-18T18:46:26.631Z,4.93
2022-12-18T18:48:54.274Z,5.02
2022-12-18T18:51:23.380Z,4.84
2022-12-18T18:53:52.586Z,4.70
2022-12-18T18:59:09.830Z,4.80
2022-12-18T19:01:36.818Z,4.83
2022-12-18T19:04:04.126Z,4.83
2022-12-18T19:06:31.273Z,4.83
2022-12-18T19:09:01.797Z,4.74
2022-12-18T19:11:47.721Z,4.65
2022-12-18T19:14:16.555Z,4.63
2022-12-18T19:16:45.000Z,4.66
2022-12-18T19:19:13.161Z,4.73
2022-12-18T19:21:40.141Z,4.57
2022-12-18T19:24:07.877Z,4.57
2022-12-18T19:26:37.803Z,4.53
2022-12-18T19:29:08.529Z,4.52
2022-12-18T19:31:37.260Z,4.52
2022-12-18T19:34:06.781Z,4.39
2022-12-18T19:36:35.501Z,4.36
2022-12-18T19:39:06.998Z,4.48
2022-12-18T19:41:33.992Z,4.40
2022-12-18T19:44:02.266Z,4.38
2022-12-18T19:46:34.842Z,4.32
2022-12-18T19:49:02.146Z,4.40
2022-12-18T19:51:30.919Z,4.53
2022-12-18T19:54:01.383Z,4.49
2022-12-18T19:56:31.587Z,4.36
2022-12-18T19:58:58.618Z,4.39
2022-12-18T20:01:26.797Z,4.35
2022-12-18T20:03:55.329Z,4.37
2022-12-18T20:06:47.565Z,4.26
2022-12-18T20:09:14.979Z,4.25
2022-12-18T20:11:42.548Z,4.29
2022-12-18T20:14:10.731Z,4.21
2022-12-18T20:16:37.951Z,4.08
2022-12-18T20:19:05.758Z,4.11
2022-12-18T20:21:32.871Z,4.11
2022-12-18T20:24:01.528Z,4.25
2022-12-18T20:26:28.645Z,4.10
2022-12-18T20:28:55.783Z,4.04
2022-12-18T20:31:23.178Z,4.12
2022-12-18T20:33:51.108Z,3.93
2022-12-18T20:36:26.925Z,3.98
2022-12-18T20:38:57.322Z,3.73
2022-12-18T20:41:31.039Z,3.56
2022-12-18T20:44:05.048Z,3.82
2022-12-18T20:46:34.271Z,3.80
2022-12-18T20:49:01.051Z,3.74
2022-12-18T20:51:29.233Z,3.52
2022-12-18T20:53:56.051Z,3.51
2022-12-18T20:56:23.436Z,3.51
2022-12-18T20:58:54.850Z,3.59
2022-12-18T21:01:23.211Z,3.35
2022-12-18T21:03:50.911Z,3.33
2022-12-18T21:06:19.714Z,3.35
2022-12-18T21:08:47.652Z,3.40
2022-12-18T21:11:40.502Z,3.38
2022-12-18T21:14:20.331Z,3.18
2022-12-18T21:16:47.773Z,3.17
2022-12-18T21:19:19.728Z,3.17
2022-12-18T21:21:56.888Z,3.21
2022-12-18T21:24:24.744Z,3.29
2022-12-18T21:26:51.428Z,3.16
2022-12-18T21:29:26.107Z,3.10
2022-12-18T21:31:54.592Z,2.99
2022-12-18T21:34:23.098Z,2.94
2022-12-18T21:36:50.028Z,2.90
2022-12-18T21:39:17.775Z,3.07
2022-12-18T21:42:04.977Z,3.10
2022-12-18T21:44:32.803Z,3.01
2022-12-18T21:47:20.653Z,2.91
2022-12-18T21:49:49.311Z,3.02
2022-12-18T21:52:15.979Z,2.97
2022-12-18T21:54:42.593Z,3.01
2022-12-18T21:57:11.099Z,2.84
2022-12-18T21:59:40.402Z,2.81
2022-12-18T22:02:12.006Z,2.67
2022-12-18T22:04:38.981Z,2.70
2022-12-18T22:07:06.238Z,2.68
2022-12-18T22:09:33.071Z,2.85
2022-12-18T22:11:59.983Z,2.90
2022-12-18T22:14:29.504Z,2.72
2022-12-18T22:16:57.416Z,2.86
2022-12-18T22:19:25.458Z,2.91
2022-12-18T22:21:52.938Z,2.82
2022-12-18T22:24:24.748Z,2.70
2022-12-18T22:26:59.527Z,2.75
2022-12-18T22:29:47.439Z,2.78
2022-12-18T22:32:18.940Z,2.67
2022-12-18T22:35:04.577Z,2.53
2022-12-18T22:37:34.029Z,2.38
2022-12-18T22:40:03.248Z,2.45
2022-12-18T22:42:30.638Z,2.42
2022-12-18T22:44:57.301Z,2.33
2022-12-18T22:47:29.221Z,2.09
2022-12-18T22:49:56.664Z,2.26
2022-12-18T22:52:24.708Z,2.38
2022-12-18T22:54:53.376Z,2.48
2022-12-18T22:57:22.724Z,2.46
2022-12-18T22:59:50.721Z,2.20
2022-12-18T23:02:18.881Z,1.94
2022-12-18T23:04:45.954Z,1.89
2022-12-18T23:07:12.757Z,1.91
2022-12-18T23:09:39.956Z,1.90
2022-12-18T23:12:07.144Z,1.88
2022-12-18T23:14:33.959Z,1.96
2022-12-18T23:17:00.660Z,1.85
2022-12-18T23:19:27.378Z,1.96
2022-12-18T23:21:54.848Z,1.79
2022-12-18T23:24:25.431Z,2.00
2022-12-18T23:26:52.195Z,2.15
2022-12-18T23:29:18.881Z,2.06
2022-12-18T23:31:45.691Z,2.02
2022-12-18T23:34:14.165Z,1.99
2022-12-18T23:36:45.224Z,1.95
2022-12-18T23:39:17.976Z,1.99
2022-12-18T23:41:58.325Z,1.92
2022-12-18T23:44:25.812Z,2.20
2022-12-18T23:46:52.911Z,2.10
2022-12-18T23:49:19.892Z,1.91
2022-12-18T23:51:46.527Z,1.91
2022-12-18T23:54:13.119Z,1.73
2022-12-18T23:56:40.184Z,1.85
2022-12-18T23:59:06.873Z,1.83
